Time;durP1;ratioP1;P1;durP2;ratioP2;P2;SDS_P1;SDS_P2;PMS_P1;PMS_P2;Temp;Humidity;BMP_temperature;BMP_pressure;BME280_temperature;BME280_humidity;BME280_pressure;Samples;Min_cycle;Max_cycle;Signal;HPM_P1;HPM_P2
2022/11/11 00:00:28;;;;;;;6.88;3.20;;;;;;;4.07;100.00;97223.00;5101021;28;24445;-72
2022/11/11 00:02:55;;;;;;;11.13;3.50;;;;;;;4.12;100.00;97227.22;5102378;28;24434;-71
2022/11/11 00:05:21;;;;;;;5.18;3.28;;;;;;;4.08;100.00;97228.13;5107531;28;24813;-72
2022/11/11 00:07:48;;;;;;;5.38;3.25;;;;;;;4.01;100.00;97223.94;5097874;28;24807;-71
2022/11/11 00:10:15;;;;;;;4.60;3.40;;;;;;;3.92;100.00;97213.81;5098323;28;24465;-72
2022/11/11 00:12:43;;;;;;;11.65;2.88;;;;;;;3.85;100.00;97215.59;5091329;28;24437;-72
2022/11/11 00:15:09;;;;;;;10.97;3.00;;;;;;;3.90;100.00;97219.84;5092499;28;24436;-72
2022/11/11 00:26:06;;;;;;;30.58;4.05;;;;;;;3.80;100.00;97219.94;5104819;28;25036;-72
2022/11/11 00:28:34;;;;;;;61.67;3.80;;;;;;;3.83;100.00;97203.69;5103439;28;24791;-72
2022/11/11 00:31:04;;;;;;;34.78;3.05;;;;;;;3.71;100.00;97214.94;5095543;28;24438;-72
2022/11/11 00:33:31;;;;;;;54.45;3.08;;;;;;;3.71;100.00;97211.50;5095467;28;24439;-73
2022/11/11 00:35:58;;;;;;;16.05;2.25;;;;;;;3.87;100.00;97216.44;5107161;28;24442;-72
2022/11/11 00:41:09;;;;;;;9.63;2.70;;;;;;;4.09;100.00;97217.00;5095010;28;24437;-72
2022/11/11 00:43:37;;;;;;;89.53;3.80;;;;;;;3.92;100.00;97223.22;5097799;28;24450;-72
2022/11/11 00:51:31;;;;;;;10.57;2.47;;;;;;;4.24;100.00;97231.31;5074986;28;24521;-72
2022/11/11 00:53:58;;;;;;;14.65;2.15;;;;;;;4.28;100.00;97240.66;5093664;28;24437;-72
2022/11/11 00:56:25;;;;;;;69.53;2.97;;;;;;;4.03;100.00;97240.13;5099053;28;24444;-71
2022/11/11 00:58:53;;;;;;;71.37;3.13;;;;;;;3.87;100.00;97236.94;5110762;28;24840;-71
2022/11/11 01:01:20;;;;;;;10.45;1.60;;;;;;;3.87;100.00;97239.50;5079638;28;24796;-71
2022/11/11 01:03:46;;;;;;;44.17;2.80;;;;;;;3.85;100.00;97236.09;5101096;28;24456;-72
2022/11/11 01:06:13;;;;;;;36.00;2.17;;;;;;;3.93;100.00;97233.47;5102476;28;24433;-72
2022/11/11 01:08:41;;;;;;;7.17;1.80;;;;;;;3.93;100.00;97230.03;5088931;28;24438;-71
2022/11/11 01:11:13;;;;;;;2.40;1.40;;;;;;;4.07;100.00;97230.69;5101876;28;24440;-71
2022/11/11 01:13:40;;;;;;;58.30;2.72;;;;;;;4.15;100.00;97234.00;5082102;28;24422;-72
2022/11/11 01:16:12;;;;;;;53.78;2.45;;;;;;;4.14;100.00;97237.44;5097610;28;24991;-73
2022/11/11 01:18:38;;;;;;;18.60;2.03;;;;;;;4.10;100.00;97238.34;5100589;28;24450;-72
2022/11/11 01:21:07;;;;;;;10.00;1.30;;;;;;;3.98;100.00;97243.66;5092593;28;24434;-73
2022/11/11 01:23:37;;;;;;;11.20;1.83;;;;;;;4.09;100.00;97244.34;5097283;28;24816;-73
2022/11/11 01:26:05;;;;;;;45.40;2.65;;;;;;;3.85;100.00;97248.06;5101832;28;24445;-73
2022/11/11 01:28:31;;;;;;;36.50;2.50;;;;;;;3.66;100.00;97254.28;5098250;28;24433;-71
2022/11/11 01:31:02;;;;;;;12.68;1.55;;;;;;;3.75;100.00;97251.63;5092024;28;24438;-72
2022/11/11 01:33:30;;;;;;;11.45;1.65;;;;;;;3.87;100.00;97248.91;5099476;28;24563;-72
2022/11/11 01:36:03;;;;;;;18.10;1.95;;;;;;;4.02;100.00;97241.03;5099442;28;24437;-72
2022/11/11 01:38:29;;;;;;;27.67;1.63;;;;;;;4.03;100.00;97247.84;5103971;28;24430;-72
2022/11/11 01:40:56;;;;;;;66.22;2.95;;;;;;;3.62;100.00;97238.09;5099690;28;25014;-72
2022/11/11 01:43:24;;;;;;;76.68;2.80;;;;;;;3.57;100.00;97243.28;5105629;28;24437;-72
2022/11/11 01:45:58;;;;;;;10.55;1.15;;;;;;;3.69;100.00;97249.13;5098627;28;24430;-72
2022/11/11 01:51:23;;;;;;;47.65;2.28;;;;;;;3.40;100.00;97252.88;5087471;28;24491;-72
2022/11/11 01:53:55;;;;;;;40.65;2.20;;;;;;;3.33;100.00;97248.69;5103444;28;24433;-71
2022/11/11 01:56:22;;;;;;;27.77;1.70;;;;;;;3.49;100.00;97246.81;5088763;28;24801;-72
2022/11/11 01:58:51;;;;;;;5.32;1.45;;;;;;;3.64;100.00;97239.78;5097720;28;25353;-72
2022/11/11 02:01:18;;;;;;;32.05;1.70;;;;;;;3.70;100.00;97249.09;5099430;28;24430;-72
2022/11/11 02:06:29;;;;;;;31.02;2.03;;;;;;;3.62;100.00;97231.25;5084439;28;24512;-72
2022/11/11 02:08:56;;;;;;;17.33;1.50;;;;;;;3.62;100.00;97238.94;5094853;28;24441;-72
2022/11/11 02:16:49;;;;;;;28.83;1.67;;;;;;;3.39;100.00;97233.25;5093104;28;24800;-72
2022/11/11 02:19:22;;;;;;;50.53;2.35;;;;;;;3.29;100.00;97239.34;5102350;28;24452;-72
2022/11/11 02:21:55;;;;;;;16.25;1.48;;;;;;;3.25;100.00;97242.78;5101209;28;24465;-72
2022/11/11 02:24:25;;;;;;;37.25;1.90;;;;;;;3.19;100.00;97246.28;5102140;28;24449;-72
2022/11/11 02:26:54;;;;;;;53.53;2.67;;;;;;;3.15;100.00;97242.91;5098002;28;24430;-72
2022/11/11 02:29:22;;;;;;;34.03;1.90;;;;;;;3.10;100.00;97244.63;5100961;28;24452;-72
2022/11/11 02:31:49;;;;;;;1.95;0.98;;;;;;;3.24;100.00;97244.50;5099024;28;24509;-72
2022/11/11 02:34:15;;;;;;;12.13;1.43;;;;;;;3.30;100.00;97241.03;5090470;28;25015;-72
2022/11/11 02:36:43;;;;;;;28.40;1.60;;;;;;;3.30;100.00;97244.47;5095103;28;24434;-72
2022/11/11 02:39:10;;;;;;;14.73;1.50;;;;;;;3.47;100.00;97241.69;5093495;28;24784;-72
2022/11/11 02:44:21;;;;;;;9.13;1.50;;;;;;;3.63;100.00;97243.22;5086092;28;24446;-71
2022/11/11 02:46:48;;;;;;;11.90;1.30;;;;;;;3.66;100.00;97246.59;5106240;28;24804;-72
2022/11/11 02:49:14;;;;;;;2.78;1.05;;;;;;;3.73;100.00;97241.38;5100687;28;25013;-72
2022/11/11 02:51:41;;;;;;;27.25;1.55;;;;;;;3.53;100.00;97243.34;5095732;28;24441;-71
2022/11/11 02:54:07;;;;;;;25.63;1.47;;;;;;;3.43;100.00;97244.31;5101635;28;24448;-71
2022/11/11 02:59:20;;;;;;;30.50;1.98;;;;;;;3.31;100.00;97245.31;5089189;28;24470;-71
2022/11/11 03:01:47;;;;;;;27.23;1.55;;;;;;;3.28;100.00;97248.72;5102458;28;24450;-71
2022/11/11 03:04:13;;;;;;;1.85;1.15;;;;;;;3.44;100.00;97248.56;5100751;28;25170;-71
2022/11/11 03:06:40;;;;;;;14.32;1.30;;;;;;;3.29;100.00;97240.19;5100448;28;24445;-71
2022/11/11 03:09:06;;;;;;;3.58;1.33;;;;;;;3.35;100.00;97236.72;5100093;28;24827;-71
2022/11/11 03:11:37;;;;;;;7.00;1.50;;;;;;;3.30;100.00;97234.22;5107503;28;24443;-72
2022/11/11 03:14:04;;;;;;;32.53;2.08;;;;;;;3.24;100.00;97235.97;5107056;28;24448;-72
2022/11/11 03:19:16;;;;;;;41.17;1.80;;;;;;;3.39;100.00;97239.22;5089667;28;25029;-72
2022/11/11 03:21:42;;;;;;;3.20;1.50;;;;;;;3.40;100.00;97232.38;5097717;28;24513;-72
2022/11/11 03:24:09;;;;;;;14.68;1.20;;;;;;;3.43;100.00;97236.63;5080167;28;24463;-71
2022/11/11 03:26:36;;;;;;;26.02;1.85;;;;;;;3.37;100.00;97232.41;5092847;28;24442;-72
2022/11/11 03:29:04;;;;;;;10.45;1.40;;;;;;;3.20;100.00;97224.94;5105263;28;24445;-71
2022/11/11 03:31:32;;;;;;;4.22;1.10;;;;;;;3.30;100.00;97238.47;5092309;28;24444;-72
2022/11/11 03:34:16;;;;;;;6.90;1.00;;;;;;;3.35;100.00;97234.16;5085974;28;24430;-72
2022/11/11 03:39:27;;;;;;;4.90;1.13;;;;;;;3.27;100.00;97228.28;5093877;28;24453;-72
2022/11/11 03:41:54;;;;;;;43.38;1.75;;;;;;;3.20;100.00;97229.19;5099260;28;24440;-72
2022/11/11 03:44:20;;;;;;;32.50;2.05;;;;;;;2.95;100.00;97236.25;5102785;28;24812;-72
2022/11/11 03:46:48;;;;;;;15.43;1.42;;;;;;;2.92;100.00;97235.41;5100747;28;24441;-72
2022/11/11 03:49:15;;;;;;;18.73;1.50;;;;;;;3.01;100.00;97231.94;5098785;28;24442;-72
2022/11/11 03:51:41;;;;;;;11.70;1.90;;;;;;;2.83;100.00;97238.06;5094842;28;24434;-72
2022/11/11 03:54:08;;;;;;;3.88;1.10;;;;;;;3.05;100.00;97235.31;5103702;28;24434;-72
2022/11/11 03:56:34;;;;;;;3.27;1.33;;;;;;;3.15;100.00;97234.34;5099968;28;24442;-72
2022/11/11 03:59:01;;;;;;;3.57;1.00;;;;;;;3.31;100.00;97241.03;5100511;28;24493;-71
2022/11/11 04:12:23;;;;;;;1.00;0.90;;;;;;;3.37;100.00;97247.78;5092459;28;25028;-71
2022/11/11 04:17:33;;;;;;;1.50;0.90;;;;;;;3.28;100.00;97253.84;5097710;28;24441;-71
2022/11/11 04:22:45;;;;;;;1.17;0.68;;;;;;;3.39;100.00;97259.72;5099469;28;24437;-72
2022/11/11 04:30:37;;;;;;;3.83;1.80;;;;;;;3.44;100.00;97262.22;5104826;28;24429;-72
2022/11/11 04:33:04;;;;;;;5.93;1.15;;;;;;;3.24;100.00;97264.16;5110725;28;24508;-71
2022/11/11 04:35:31;;;;;;;6.13;1.10;;;;;;;3.10;100.00;97259.16;5101372;28;24433;-72
2022/11/11 04:43:22;;;;;;;15.23;1.38;;;;;;;3.01;100.00;97252.41;5096855;28;25045;-74
2022/11/11 04:45:48;;;;;;;6.60;1.20;;;;;;;2.89;100.00;97249.94;5104709;28;24527;-74
2022/11/11 04:48:15;;;;;;;3.15;1.00;;;;;;;3.05;100.00;97253.25;5104427;28;24439;-73
2022/11/11 04:50:44;;;;;;;2.13;1.00;;;;;;;3.10;100.00;97261.72;5099718;28;24518;-73
2022/11/11 04:53:13;;;;;;;1.55;1.40;;;;;;;3.15;100.00;97258.25;5108680;28;24430;-73
2022/11/11 04:58:26;;;;;;;1.52;1.10;;;;;;;3.22;100.00;97263.31;5103608;28;24410;-74
2022/11/11 05:00:52;;;;;;;31.80;2.28;;;;;;;3.06;100.00;97267.72;5085781;28;24442;-74
2022/11/11 05:03:20;;;;;;;6.95;1.63;;;;;;;3.07;100.00;97277.09;5100763;28;24483;-74
2022/11/11 05:11:21;;;;;;;4.88;0.95;;;;;;;3.15;100.00;97288.09;5085753;28;24476;-74
2022/11/11 05:22:09;;;;;;;14.52;2.13;;;;;;;2.79;100.00;97302.94;5094135;28;24433;-73
2022/11/11 05:27:20;;;;;;;2.65;1.60;;;;;;;2.85;100.00;97307.13;5085696;28;24478;-74
2022/11/11 05:29:47;;;;;;;15.32;2.00;;;;;;;2.73;100.00;97305.53;5090694;28;24434;-74
2022/11/11 05:32:16;;;;;;;8.25;1.67;;;;;;;2.68;100.00;97307.28;5093648;28;24438;-73
2022/11/11 05:34:43;;;;;;;19.13;1.83;;;;;;;2.06;100.00;97311.91;5089941;28;24990;-73
2022/11/11 05:37:11;;;;;;;9.52;1.42;;;;;;;2.06;100.00;97317.00;5090313;28;24434;-73
2022/11/11 05:39:38;;;;;;;7.82;1.50;;;;;;;2.20;100.00;97316.94;5084230;28;24446;-74
2022/11/11 05:42:04;;;;;;;50.50;2.28;;;;;;;1.97;100.00;97329.84;5095165;28;24445;-74
2022/11/11 05:44:31;;;;;;;10.13;1.67;;;;;;;1.92;100.00;97336.66;5092810;28;24449;-73
2022/11/11 05:46:58;;;;;;;2.30;1.43;;;;;;;2.04;100.00;97326.41;5104410;28;24433;-73
2022/11/11 05:49:25;;;;;;;19.70;2.58;;;;;;;2.08;100.00;97330.63;5093782;28;24445;-73
2022/11/11 05:51:54;;;;;;;20.90;2.35;;;;;;;1.92;100.00;97341.75;5090627;28;24438;-73
2022/11/11 05:54:22;;;;;;;8.80;1.77;;;;;;;2.07;100.00;97336.59;5099241;28;24522;-73
2022/11/11 05:56:48;;;;;;;24.30;1.90;;;;;;;1.91;100.00;97345.19;5105245;28;24441;-73
2022/11/11 05:59:15;;;;;;;24.45;1.65;;;;;;;1.91;100.00;97347.72;5088584;28;24441;-73
2022/11/11 06:01:42;;;;;;;0.80;0.60;;;;;;;2.13;100.00;97345.94;5094338;28;24449;-73
2022/11/11 06:04:09;;;;;;;1.40;1.07;;;;;;;2.24;100.00;97343.34;5093338;28;24429;-74
2022/11/11 06:06:36;;;;;;;14.07;1.75;;;;;;;2.31;100.00;97350.13;5101211;28;24480;-74
2022/11/11 06:09:04;;;;;;;19.08;2.00;;;;;;;2.37;100.00;97355.19;5096430;28;24426;-74
2022/11/11 06:11:32;;;;;;;7.47;1.40;;;;;;;2.37;100.00;97360.31;5090014;28;24805;-74
2022/11/11 06:13:59;;;;;;;14.07;1.60;;;;;;;2.42;100.00;97366.25;5089517;28;24445;-73
2022/11/11 06:16:25;;;;;;;10.13;1.65;;;;;;;2.29;100.00;97368.00;5096556;28;24438;-74
2022/11/11 06:18:52;;;;;;;13.43;1.75;;;;;;;2.26;100.00;97360.34;5083824;28;24800;-73
2022/11/11 06:21:19;;;;;;;8.20;1.65;;;;;;;2.25;100.00;97352.69;5085162;28;24441;-73
2022/11/11 06:23:46;;;;;;;10.60;1.60;;;;;;;2.25;100.00;97363.78;5089644;28;24430;-73
2022/11/11 06:26:12;;;;;;;3.45;1.80;;;;;;;2.32;100.00;97354.38;5087622;28;24457;-73
2022/11/11 06:28:40;;;;;;;2.80;1.80;;;;;;;2.42;100.00;97366.25;5084850;28;24563;-73
2022/11/11 06:31:07;;;;;;;5.40;1.65;;;;;;;2.45;100.00;97373.03;5086332;28;24452;-73
2022/11/11 06:33:34;;;;;;;2.00;1.40;;;;;;;2.58;100.00;97375.53;5091093;28;25046;-74
2022/11/11 06:36:00;;;;;;;3.75;1.48;;;;;;;2.59;100.00;97374.66;5089956;28;25037;-72
2022/11/11 06:38:27;;;;;;;6.25;1.35;;;;;;;2.60;100.00;97371.28;5093153;28;24443;-73
2022/11/11 06:40:53;;;;;;;9.55;1.48;;;;;;;2.48;100.00;97378.16;5095876;28;25022;-73
2022/11/11 06:43:20;;;;;;;1.80;1.27;;;;;;;2.59;100.00;97374.66;5091203;28;24527;-73
2022/11/11 06:45:50;;;;;;;3.00;1.60;;;;;;;2.58;100.00;97385.78;5102326;28;24445;-72
2022/11/11 06:48:17;;;;;;;18.83;1.85;;;;;;;2.52;100.00;97378.16;5104213;28;25011;-75
2022/11/11 06:50:43;;;;;;;6.47;1.30;;;;;;;2.61;100.00;97380.66;5101452;28;24975;-74
2022/11/11 06:53:11;;;;;;;2.65;0.90;;;;;;;2.60;100.00;97380.66;5087995;28;24982;-73
2022/11/11 06:55:38;;;;;;;8.35;0.95;;;;;;;2.54;100.00;97381.53;5099791;28;24426;-70
2022/11/11 06:58:05;;;;;;;5.85;1.00;;;;;;;2.40;100.00;97375.63;5085512;28;24437;-73
2022/11/11 07:00:32;;;;;;;2.70;1.10;;;;;;;2.50;100.00;97381.56;5083280;28;24434;-73
2022/11/11 07:03:00;;;;;;;14.15;1.50;;;;;;;2.44;100.00;97385.00;5099079;28;24972;-73
2022/11/11 07:05:26;;;;;;;4.37;1.30;;;;;;;2.38;100.00;97373.09;5102031;28;24476;-73
2022/11/11 07:07:53;;;;;;;5.57;1.52;;;;;;;2.41;100.00;97380.75;5102491;28;24436;-73
2022/11/11 07:10:20;;;;;;;5.90;1.25;;;;;;;2.47;100.00;97382.41;5098350;28;24438;-73
2022/11/11 07:12:46;;;;;;;17.88;2.00;;;;;;;2.47;100.00;97387.53;5098341;28;24456;-72
2022/11/11 07:15:13;;;;;;;2.00;1.30;;;;;;;2.56;100.00;97386.63;5102936;28;24426;-72
2022/11/11 07:17:41;;;;;;;9.75;1.42;;;;;;;2.56;100.00;97392.63;5089637;28;24804;-72
2022/11/11 07:20:10;;;;;;;1.70;1.30;;;;;;;2.63;100.00;97394.28;5100021;28;24441;-72
2022/11/11 07:22:37;;;;;;;7.82;1.50;;;;;;;2.81;100.00;97400.97;5083352;28;24434;-71
2022/11/11 07:25:04;;;;;;;3.60;1.30;;;;;;;2.77;100.00;97396.75;5103629;28;24453;-72
2022/11/11 07:27:30;;;;;;;13.18;1.40;;;;;;;2.75;100.00;97407.88;5096488;28;25017;-72
2022/11/11 07:29:57;;;;;;;6.47;1.50;;;;;;;2.72;100.00;97403.59;5087594;28;24434;-72
2022/11/11 07:32:23;;;;;;;7.40;1.80;;;;;;;2.69;100.00;97400.22;5085513;28;24983;-73
2022/11/11 07:34:50;;;;;;;7.82;3.63;;;;;;;2.67;100.00;97401.09;5101677;28;24440;-72
2022/11/11 07:37:18;;;;;;;4.65;2.35;;;;;;;2.64;100.00;97400.25;5097045;28;24440;-73
2022/11/11 07:39:45;;;;;;;4.25;3.17;;;;;;;2.75;100.00;97402.75;5102784;28;25017;-72
2022/11/11 07:42:11;;;;;;;3.58;3.00;;;;;;;2.84;100.00;97395.00;5089445;28;24429;-72
2022/11/11 07:44:38;;;;;;;7.57;2.78;;;;;;;2.94;100.00;97398.38;5092334;28;24430;-73
2022/11/11 07:47:05;;;;;;;3.00;1.90;;;;;;;3.09;100.00;97388.03;5098032;28;24430;-72
2022/11/11 07:49:31;;;;;;;5.30;1.73;;;;;;;2.97;100.00;97394.06;5107122;28;24860;-72
2022/11/11 07:51:58;;;;;;;2.42;1.60;;;;;;;3.10;100.00;97392.25;5095026;28;24437;-72
2022/11/11 07:54:26;;;;;;;4.45;1.70;;;;;;;3.10;100.00;97403.34;5090405;28;24457;-72
2022/11/11 07:56:52;;;;;;;3.20;1.70;;;;;;;3.01;100.00;97398.31;5088839;28;24431;-72
2022/11/11 07:59:19;;;;;;;4.25;1.25;;;;;;;2.97;100.00;97408.59;5107272;28;24978;-69
2022/11/11 08:01:45;;;;;;;7.40;4.20;;;;;;;3.03;100.00;97409.38;5101409;28;24436;-70
2022/11/11 08:04:12;;;;;;;2.38;1.73;;;;;;;3.23;100.00;97404.13;5087428;28;25005;-70
2022/11/11 08:06:38;;;;;;;1.40;1.30;;;;;;;3.43;100.00;97400.53;5089882;28;24536;-70
2022/11/11 08:09:05;;;;;;;6.07;4.85;;;;;;;3.39;100.00;97398.00;5102564;28;25017;-70
2022/11/11 08:14:17;;;;;;;5.28;2.00;;;;;;;3.45;100.00;97401.38;5093598;28;24820;-70
2022/11/11 08:16:44;;;;;;;4.13;1.60;;;;;;;3.49;100.00;97398.78;5085725;28;24434;-70
2022/11/11 08:19:10;;;;;;;2.05;1.35;;;;;;;3.67;100.00;97405.47;5091954;28;24441;-70
2022/11/11 08:21:37;;;;;;;1.85;1.38;;;;;;;3.81;100.00;97401.03;5099695;28;24457;-70
2022/11/11 08:24:03;;;;;;;3.08;2.50;;;;;;;3.76;100.00;97396.84;5095178;28;24441;-70
2022/11/11 08:26:30;;;;;;;3.20;2.42;;;;;;;3.78;100.00;97395.97;5093661;28;24495;-70
2022/11/11 08:28:58;;;;;;;5.47;4.57;;;;;;;3.80;100.00;97396.78;5095894;28;24870;-70
2022/11/11 08:31:25;;;;;;;2.22;2.00;;;;;;;3.84;100.00;97401.00;5107809;28;25013;-70
2022/11/11 08:33:52;;;;;;;3.47;2.97;;;;;;;4.04;100.00;97400.81;5098793;28;24438;-70
2022/11/11 08:36:18;;;;;;;5.07;4.57;;;;;;;4.16;100.00;97391.28;5096371;28;24437;-70
2022/11/11 08:38:45;;;;;;;2.97;1.83;;;;;;;4.25;100.00;97398.84;5097960;28;24445;-71
2022/11/11 08:41:11;;;;;;;2.80;1.40;;;;;;;4.48;100.00;97399.41;5087505;28;24434;-71
2022/11/11 08:43:38;;;;;;;2.58;1.75;;;;;;;4.43;100.00;97395.22;5096897;28;24441;-71
2022/11/11 08:46:06;;;;;;;4.22;1.80;;;;;;;4.38;100.00;97397.00;5097576;28;24812;-70
2022/11/11 08:48:33;;;;;;;4.20;2.60;;;;;;;4.45;100.00;97388.34;5097206;28;24445;-71
2022/11/11 08:50:59;;;;;;;3.08;1.92;;;;;;;4.56;100.00;97396.75;5103869;28;24449;-70
2022/11/11 08:53:26;;;;;;;2.90;1.75;;;;;;;4.71;100.00;97390.56;5093971;28;24434;-71
2022/11/11 08:55:53;;;;;;;3.95;2.53;;;;;;;4.79;100.00;97391.34;5094400;28;24427;-70
2022/11/11 08:58:19;;;;;;;3.58;2.38;;;;;;;4.78;100.00;97389.59;5108130;28;24898;-70
2022/11/11 09:00:46;;;;;;;14.85;2.13;;;;;;;4.66;100.00;97382.09;5108378;28;24444;-71
2022/11/11 09:03:14;;;;;;;5.72;4.93;;;;;;;4.65;100.00;97391.50;5100855;28;24446;-70
2022/11/11 09:05:41;;;;;;;5.43;4.25;;;;;;;4.57;100.00;97385.63;5088624;28;24458;-70
2022/11/11 09:08:08;;;;;;;5.85;5.25;;;;;;;4.72;100.00;97390.56;5099477;28;24994;-73
2022/11/11 09:10:35;;;;;;;3.53;2.10;;;;;;;4.77;100.00;97386.19;5094442;28;24464;-70
2022/11/11 09:13:02;;;;;;;2.60;1.83;;;;;;;4.92;100.00;97380.00;5099376;28;24434;-70
2022/11/11 09:15:29;;;;;;;9.65;6.18;;;;;;;5.12;100.00;97378.84;5096531;28;24899;-71
2022/11/11 09:17:56;;;;;;;4.45;3.90;;;;;;;5.27;100.00;97382.03;5099741;28;25032;-71
2022/11/11 09:20:24;;;;;;;4.43;3.55;;;;;;;5.49;100.00;97387.69;5106660;28;24464;-71
2022/11/11 09:22:51;;;;;;;7.47;4.30;;;;;;;5.56;100.00;97383.25;5096782;28;25195;-71
2022/11/11 09:25:19;;;;;;;7.60;4.40;;;;;;;5.81;100.00;97381.94;5098433;28;24440;-71
2022/11/11 09:27:54;;;;;;;4.70;3.50;;;;;;;5.97;100.00;97385.16;5092225;28;24435;-70
2022/11/11 09:30:21;;;;;;;7.20;2.60;;;;;;;6.16;100.00;97379.66;5092735;28;24438;-71
2022/11/11 09:32:47;;;;;;;4.20;2.47;;;;;;;6.45;100.00;97379.91;5102818;28;24430;-71
2022/11/11 09:35:14;;;;;;;3.83;2.92;;;;;;;6.75;100.00;97382.72;5106750;28;24808;-72
2022/11/11 09:37:42;;;;;;;5.07;2.72;;;;;;;6.81;100.00;97385.13;5093882;28;24433;-71
2022/11/11 09:40:16;;;;;;;5.55;3.72;;;;;;;6.81;100.00;97374.84;5102629;28;24836;-71
2022/11/11 09:42:48;;;;;;;4.35;3.20;;;;;;;7.11;100.00;97381.00;5097621;28;24433;-71
2022/11/11 09:45:21;;;;;;;8.00;2.87;;;;;;;7.12;100.00;97379.28;5097696;28;24429;-71
2022/11/11 09:47:57;;;;;;;3.88;3.10;;;;;;;7.19;100.00;97373.09;5097195;28;24437;-71
2022/11/11 09:50:29;;;;;;;4.68;2.65;;;;;;;7.35;100.00;97382.19;5093757;28;24647;-71
2022/11/11 09:53:04;;;;;;;4.68;2.90;;;;;;;7.25;100.00;97372.97;5104182;28;24429;-71
2022/11/11 09:55:38;;;;;;;4.47;2.53;;;;;;;7.40;100.00;97372.59;5090249;28;24521;-71
2022/11/11 09:58:11;;;;;;;4.33;2.57;;;;;;;7.56;100.00;97375.63;5096156;28;20810;-71
2022/11/11 10:00:41;;;;;;;3.80;2.70;;;;;;;7.81;100.00;97375.84;5091236;28;25052;-72
2022/11/11 10:03:15;;;;;;;4.13;2.53;;;;;;;8.07;100.00;97379.47;5097023;28;20723;-71
2022/11/11 10:05:46;;;;;;;3.83;2.30;;;;;;;8.09;100.00;97382.88;5092349;28;20830;-72
2022/11/11 10:08:17;;;;;;;3.95;2.03;;;;;;;8.21;100.00;97383.38;5102448;28;20682;-70
2022/11/11 10:10:46;;;;;;;10.07;2.13;;;;;;;8.36;100.00;97379.50;5100962;28;24433;-71
2022/11/11 10:13:15;;;;;;;10.95;2.20;;;;;;;8.52;100.00;97369.63;5099920;28;20812;-72
2022/11/11 10:15:54;;;;;;;5.05;2.30;;;;;;;8.56;100.00;97367.78;5102187;28;20814;-71
2022/11/11 10:18:39;;;;;;;4.60;2.13;;;;;;;8.81;100.00;97363.59;5094279;28;20727;-73
2022/11/11 10:21:13;;;;;;;3.65;2.17;;;;;;;9.34;100.00;97358.47;5101347;28;20685;-71
2022/11/11 10:23:46;;;;;;;3.40;2.00;;;;;;;9.67;100.00;97366.84;5091587;28;20777;-71
2022/11/11 10:26:19;;;;;;;3.60;2.05;;;;;;;9.48;100.00;97360.59;5096865;28;24446;-73
2022/11/11 10:28:45;;;;;;;3.88;2.47;;;;;;;9.71;100.00;97357.25;5097813;28;20696;-72
2022/11/11 10:31:19;;;;;;;5.88;2.17;;;;;;;9.84;100.00;97361.13;5091938;28;24433;-71
2022/11/11 10:33:50;;;;;;;4.20;2.28;;;;;;;9.83;100.00;97363.78;5088917;28;24488;-72
2022/11/11 10:36:19;;;;;;;3.10;2.20;;;;;;;9.68;100.00;97365.13;5093771;28;20921;-72
2022/11/11 10:38:52;;;;;;;9.07;2.17;;;;;;;9.73;100.00;97368.41;5088364;28;24436;-71
2022/11/11 10:41:23;;;;;;;5.35;2.25;;;;;;;9.74;100.00;97369.25;5098904;28;24433;-72
2022/11/11 10:43:50;;;;;;;5.43;1.95;;;;;;;9.86;100.00;97374.00;5088979;28;24438;-72
2022/11/11 10:46:22;;;;;;;3.95;2.30;;;;;;;10.11;100.00;97355.88;5095963;28;24449;-72
2022/11/11 10:48:55;;;;;;;7.10;1.90;;;;;;;10.11;100.00;97366.22;5092735;28;24442;-73
2022/11/11 10:51:23;;;;;;;5.30;2.10;;;;;;;10.03;100.00;97363.91;5098342;28;24434;-73
2022/11/11 10:54:01;;;;;;;2.95;2.13;;;;;;;10.01;100.00;97359.66;5097404;28;25266;-72
2022/11/11 10:56:36;;;;;;;3.53;1.63;;;;;;;10.03;100.00;97360.47;5097683;28;20735;-72
2022/11/11 10:59:11;;;;;;;2.55;1.63;;;;;;;10.10;100.00;97361.94;5099497;28;25022;-72
2022/11/11 11:01:43;;;;;;;5.60;1.98;;;;;;;10.26;100.00;97355.34;5095903;28;24434;-72
2022/11/11 11:04:17;;;;;;;3.23;2.20;;;;;;;10.35;100.00;97360.22;5096726;28;24812;-73
2022/11/11 11:06:47;;;;;;;5.03;2.40;;;;;;;10.33;100.00;97358.56;5087679;28;25069;-73
2022/11/11 11:09:19;;;;;;;2.97;2.20;;;;;;;10.30;100.00;97353.50;5086511;28;24456;-72
2022/11/11 11:11:52;;;;;;;3.90;2.20;;;;;;;10.39;100.00;97354.00;5087974;28;24437;-72
2022/11/11 11:14:24;;;;;;;4.78;2.40;;;;;;;10.53;100.00;97345.75;5096312;28;24441;-73
2022/11/11 11:16:54;;;;;;;2.47;2.08;;;;;;;10.59;100.00;97344.66;5100694;28;24436;-72
2022/11/11 11:19:22;;;;;;;5.40;2.50;;;;;;;10.64;100.00;97345.31;5094995;28;24449;-73
2022/11/11 11:21:51;;;;;;;3.03;2.30;;;;;;;10.66;100.00;97340.94;5095378;28;24434;-73
2022/11/11 11:24:25;;;;;;;4.50;2.80;;;;;;;10.62;100.00;97339.34;5104678;28;24453;-73
2022/11/11 11:26:54;;;;;;;4.47;2.47;;;;;;;10.54;100.00;97329.28;5103447;28;24456;-73
2022/11/11 11:29:26;;;;;;;5.72;2.35;;;;;;;10.51;100.00;97331.16;5081665;28;24442;-73
2022/11/11 11:31:54;;;;;;;4.03;2.85;;;;;;;10.43;100.00;97335.78;5102210;28;25014;-73
2022/11/11 11:34:20;;;;;;;6.70;2.60;;;;;;;10.34;100.00;97335.19;5102266;28;24433;-73
2022/11/11 11:37:00;;;;;;;5.03;2.50;;;;;;;10.37;100.00;97342.84;5098871;28;25007;-72
2022/11/11 11:39:35;;;;;;;2.77;2.27;;;;;;;10.45;100.00;97341.72;5087196;28;24439;-71
2022/11/11 11:42:02;;;;;;;5.72;2.72;;;;;;;10.42;100.00;97345.28;5088979;28;24453;-71
2022/11/11 11:44:31;;;;;;;3.92;2.92;;;;;;;10.47;100.00;97334.75;5090532;28;24435;-71
2022/11/11 11:47:10;;;;;;;3.78;2.67;;;;;;;10.50;100.00;97335.47;5089382;28;24457;-71
2022/11/11 11:50:03;;;;;;;6.00;2.80;;;;;;;10.63;100.00;97348.81;5094093;28;24507;-71
2022/11/11 11:52:42;;;;;;;4.30;2.75;;;;;;;10.69;100.00;97332.19;5096998;28;24800;-72
2022/11/11 11:55:16;;;;;;;3.78;2.50;;;;;;;10.66;100.00;97331.41;5107687;28;24457;-75
2022/11/11 11:58:00;;;;;;;3.80;2.10;;;;;;;10.70;100.00;97326.94;5097451;28;25005;-73
2022/11/11 12:00:29;;;;;;;3.80;2.03;;;;;;;10.70;100.00;97336.47;5097315;28;24967;-73
2022/11/11 12:03:24;;;;;;;5.28;2.08;;;;;;;10.74;100.00;97328.50;5103941;28;24445;-74
2022/11/11 12:06:00;;;;;;;3.95;2.03;;;;;;;10.75;100.00;97327.59;5108355;28;24955;-73
2022/11/11 12:08:49;;;;;;;3.05;2.13;;;;;;;10.74;100.00;97323.31;5103985;28;20765;-74
2022/11/11 12:11:23;;;;;;;4.97;2.23;;;;;;;10.75;100.00;97318.97;5094264;28;24446;-74
2022/11/11 12:14:08;;;;;;;4.45;2.28;;;;;;;10.74;100.00;97330.25;5107354;28;24437;-74
2022/11/11 12:16:43;;;;;;;3.60;2.30;;;;;;;10.71;100.00;97326.03;5089505;28;24433;-74
2022/11/11 12:19:42;;;;;;;4.75;2.35;;;;;;;10.71;100.00;97326.03;5102864;28;24441;-73
2022/11/11 12:22:22;;;;;;;4.03;2.30;;;;;;;10.71;100.00;97327.78;5099205;28;24450;-72
2022/11/11 12:24:55;;;;;;;5.40;2.38;;;;;;;10.72;100.00;97316.53;5096534;28;24434;-72
2022/11/11 12:27:30;;;;;;;3.33;2.13;;;;;;;10.72;100.00;97324.31;5109763;28;24472;-75
2022/11/11 12:30:04;;;;;;;3.70;2.17;;;;;;;10.78;100.00;97326.66;5087956;28;24540;-73
2022/11/11 12:32:58;;;;;;;5.50;2.50;;;;;;;10.83;100.00;97328.16;5087329;28;25053;-75
2022/11/11 12:35:36;;;;;;;3.97;2.17;;;;;;;10.86;100.00;97320.28;5095433;28;24436;-73
2022/11/11 12:38:18;;;;;;;5.35;2.10;;;;;;;10.92;100.00;97320.94;5102873;28;24436;-73
2022/11/11 12:40:56;;;;;;;4.70;2.10;;;;;;;10.96;100.00;97322.50;5099478;28;24477;-75
2022/11/11 12:43:29;;;;;;;4.25;2.10;;;;;;;11.01;100.00;97321.44;5087639;28;24430;-73
2022/11/11 12:46:04;;;;;;;4.88;2.30;;;;;;;11.09;100.00;97311.59;5099447;28;24677;-74
2022/11/11 12:48:50;;;;;;;3.47;2.40;;;;;;;11.17;100.00;97311.28;5100370;28;24429;-74
2022/11/11 12:51:29;;;;;;;4.43;2.60;;;;;;;11.26;100.00;97313.47;5097240;28;24425;-74
2022/11/11 12:54:06;;;;;;;4.68;3.00;;;;;;;11.32;100.00;97307.22;5102906;28;25015;-74
2022/11/11 12:56:43;;;;;;;5.40;3.00;;;;;;;11.32;100.00;97307.22;5098941;28;24437;-74
2022/11/11 12:59:20;;;;;;;4.90;2.25;;;;;;;11.35;100.00;97310.53;5103819;28;25010;-74
2022/11/11 13:01:55;;;;;;;5.57;2.40;;;;;;;11.31;100.00;97311.56;5099406;28;24430;-74
2022/11/11 13:04:37;;;;;;;2.75;1.98;;;;;;;11.35;100.00;97314.88;5097626;28;25003;-74
2022/11/11 13:07:32;;;;;;;3.90;2.38;;;;;;;11.39;100.00;97312.09;5095421;28;24469;-74